Atkinsons Mills, Pennsylvania
Current Conditions -  °F | °C
As of 5:53 PM on Tuesday 21 Oct 2014 (Local Time) from KUNV Reporting Station
Overcast Overcast  
Wind Chill: 52°   Ceiling: 8000
Heat Index: 52°   Visibility: 7mi
Dew Point: 48°   Wind: 5mph
Humidity: 88%   Direction: NA
Pressure: 29.88"   Gusts: NA
Location:  40.5138°N, 77.7384°W
Report Text: KUNV 212153Z VRB04KT 7SM OVC080 11/09 A2988
Loading
Personal Weather Stations






























Interactive Weather Map New forecast layout! Learn more

10-Day Weather Forecast

Advertisements
Track Severe Weather on mobile